sensor_id;sensor_type;location;lat;lon;timestamp;P1;durP1;ratioP1;P2;durP2;ratioP2
41253;SDS011;26987;59.928;30.306;2024-01-27T00:01:38;23.45;;;11.43;;
41253;SDS011;26987;59.928;30.306;2024-01-27T00:04:06;16.65;;;9.40;;
41253;SDS011;26987;59.928;30.306;2024-01-27T00:06:34;24.10;;;11.07;;
41253;SDS011;26987;59.928;30.306;2024-01-27T00:09:02;17.70;;;9.23;;
41253;SDS011;26987;59.928;30.306;2024-01-27T00:11:33;18.67;;;10.20;;
41253;SDS011;26987;59.928;30.306;2024-01-27T00:14:01;16.05;;;7.85;;
41253;SDS011;26987;59.928;30.306;2024-01-27T00:16:29;13.90;;;7.85;;
41253;SDS011;26987;59.928;30.306;2024-01-27T00:18:57;12.82;;;6.70;;
41253;SDS011;26987;59.928;30.306;2024-01-27T00:21:25;12.70;;;6.88;;
41253;SDS011;26987;59.928;30.306;2024-01-27T00:23:53;11.52;;;6.40;;
41253;SDS011;26987;59.928;30.306;2024-01-27T00:26:26;8.55;;;5.53;;
41253;SDS011;26987;59.928;30.306;2024-01-27T00:28:56;10.63;;;5.40;;
41253;SDS011;26987;59.928;30.306;2024-01-27T00:31:25;10.55;;;5.60;;
41253;SDS011;26987;59.928;30.306;2024-01-27T00:33:52;10.13;;;6.03;;
41253;SDS011;26987;59.928;30.306;2024-01-27T00:36:20;10.02;;;6.07;;
41253;SDS011;26987;59.928;30.306;2024-01-27T00:38:48;8.27;;;5.32;;
41253;SDS011;26987;59.928;30.306;2024-01-27T00:41:16;8.77;;;5.28;;
41253;SDS011;26987;59.928;30.306;2024-01-27T00:43:45;10.60;;;6.18;;
41253;SDS011;26987;59.928;30.306;2024-01-27T00:46:14;10.00;;;6.43;;
41253;SDS011;26987;59.928;30.306;2024-01-27T00:48:42;9.15;;;5.45;;
41253;SDS011;26987;59.928;30.306;2024-01-27T00:51:10;10.73;;;5.80;;
41253;SDS011;26987;59.928;30.306;2024-01-27T00:53:38;11.98;;;6.00;;
41253;SDS011;26987;59.928;30.306;2024-01-27T00:56:07;9.68;;;5.40;;
41253;SDS011;26987;59.928;30.306;2024-01-27T00:58:35;10.80;;;5.60;;
41253;SDS011;26987;59.928;30.306;2024-01-27T01:01:03;10.93;;;6.00;;
41253;SDS011;26987;59.928;30.306;2024-01-27T01:03:32;9.35;;;5.10;;
41253;SDS011;26987;59.928;30.306;2024-01-27T01:06:00;7.47;;;4.45;;
41253;SDS011;26987;59.928;30.306;2024-01-27T01:08:29;8.73;;;5.03;;
41253;SDS011;26987;59.928;30.306;2024-01-27T01:10:56;8.00;;;4.72;;
41253;SDS011;26987;59.928;30.306;2024-01-27T01:13:24;12.05;;;5.13;;
41253;SDS011;26987;59.928;30.306;2024-01-27T01:15:52;10.02;;;4.68;;
41253;SDS011;26987;59.928;30.306;2024-01-27T01:18:20;9.18;;;4.95;;
41253;SDS011;26987;59.928;30.306;2024-01-27T01:20:50;9.50;;;5.30;;
41253;SDS011;26987;59.928;30.306;2024-01-27T01:23:17;10.77;;;5.55;;
41253;SDS011;26987;59.928;30.306;2024-01-27T01:25:45;10.63;;;5.20;;
41253;SDS011;26987;59.928;30.306;2024-01-27T01:28:13;8.80;;;4.70;;
41253;SDS011;26987;59.928;30.306;2024-01-27T01:30:41;7.63;;;4.25;;
41253;SDS011;26987;59.928;30.306;2024-01-27T01:33:10;8.13;;;5.07;;
41253;SDS011;26987;59.928;30.306;2024-01-27T01:35:38;10.50;;;5.00;;
41253;SDS011;26987;59.928;30.306;2024-01-27T01:38:07;10.07;;;4.68;;
41253;SDS011;26987;59.928;30.306;2024-01-27T01:40:35;11.68;;;6.03;;
41253;SDS011;26987;59.928;30.306;2024-01-27T01:43:03;9.80;;;5.45;;
41253;SDS011;26987;59.928;30.306;2024-01-27T01:45:36;11.23;;;4.95;;
41253;SDS011;26987;59.928;30.306;2024-01-27T01:48:05;9.75;;;5.45;;
41253;SDS011;26987;59.928;30.306;2024-01-27T01:50:34;10.57;;;5.07;;
41253;SDS011;26987;59.928;30.306;2024-01-27T01:53:03;12.07;;;5.63;;
41253;SDS011;26987;59.928;30.306;2024-01-27T01:55:34;10.57;;;5.70;;
41253;SDS011;26987;59.928;30.306;2024-01-27T01:58:02;15.35;;;6.43;;
41253;SDS011;26987;59.928;30.306;2024-01-27T02:00:30;10.65;;;4.93;;
41253;SDS011;26987;59.928;30.306;2024-01-27T02:02:59;8.63;;;4.75;;
41253;SDS011;26987;59.928;30.306;2024-01-27T02:05:26;11.38;;;5.45;;
41253;SDS011;26987;59.928;30.306;2024-01-27T02:07:54;8.52;;;4.88;;
41253;SDS011;26987;59.928;30.306;2024-01-27T02:10:26;9.38;;;5.35;;
41253;SDS011;26987;59.928;30.306;2024-01-27T02:12:55;10.23;;;5.80;;
41253;SDS011;26987;59.928;30.306;2024-01-27T02:15:24;10.55;;;5.18;;
41253;SDS011;26987;59.928;30.306;2024-01-27T02:17:52;9.73;;;5.05;;
41253;SDS011;26987;59.928;30.306;2024-01-27T02:20:20;9.10;;;5.13;;
41253;SDS011;26987;59.928;30.306;2024-01-27T02:22:47;9.70;;;5.63;;
41253;SDS011;26987;59.928;30.306;2024-01-27T02:25:17;8.65;;;4.65;;
41253;SDS011;26987;59.928;30.306;2024-01-27T02:27:45;8.90;;;5.05;;
41253;SDS011;26987;59.928;30.306;2024-01-27T02:30:12;9.45;;;5.07;;
41253;SDS011;26987;59.928;30.306;2024-01-27T02:32:40;7.47;;;4.28;;
41253;SDS011;26987;59.928;30.306;2024-01-27T02:35:08;7.95;;;4.22;;
41253;SDS011;26987;59.928;30.306;2024-01-27T02:37:36;5.82;;;3.90;;
41253;SDS011;26987;59.928;30.306;2024-01-27T02:40:04;7.28;;;4.38;;
41253;SDS011;26987;59.928;30.306;2024-01-27T02:42:35;9.40;;;4.53;;
41253;SDS011;26987;59.928;30.306;2024-01-27T02:45:03;6.45;;;3.85;;
41253;SDS011;26987;59.928;30.306;2024-01-27T02:47:32;6.80;;;4.03;;
41253;SDS011;26987;59.928;30.306;2024-01-27T02:50:00;7.47;;;4.25;;
41253;SDS011;26987;59.928;30.306;2024-01-27T02:52:28;7.18;;;4.45;;
41253;SDS011;26987;59.928;30.306;2024-01-27T02:54:56;10.10;;;5.38;;
41253;SDS011;26987;59.928;30.306;2024-01-27T02:57:24;8.98;;;5.18;;
41253;SDS011;26987;59.928;30.306;2024-01-27T02:59:53;7.53;;;4.82;;
41253;SDS011;26987;59.928;30.306;2024-01-27T03:02:21;12.05;;;4.82;;
41253;SDS011;26987;59.928;30.306;2024-01-27T03:04:49;6.05;;;4.15;;
41253;SDS011;26987;59.928;30.306;2024-01-27T03:07:17;10.65;;;4.90;;
41253;SDS011;26987;59.928;30.306;2024-01-27T03:09:45;8.25;;;4.43;;
41253;SDS011;26987;59.928;30.306;2024-01-27T03:12:12;7.45;;;4.45;;
41253;SDS011;26987;59.928;30.306;2024-01-27T03:14:42;9.63;;;5.28;;
41253;SDS011;26987;59.928;30.306;2024-01-27T03:17:12;9.30;;;4.95;;
41253;SDS011;26987;59.928;30.306;2024-01-27T03:19:40;6.78;;;4.35;;
41253;SDS011;26987;59.928;30.306;2024-01-27T03:22:08;7.70;;;4.22;;
41253;SDS011;26987;59.928;30.306;2024-01-27T03:24:37;7.80;;;4.65;;
41253;SDS011;26987;59.928;30.306;2024-01-27T03:27:04;9.98;;;4.75;;
41253;SDS011;26987;59.928;30.306;2024-01-27T03:29:32;8.35;;;5.25;;
41253;SDS011;26987;59.928;30.306;2024-01-27T03:32:00;8.10;;;4.95;;
41253;SDS011;26987;59.928;30.306;2024-01-27T03:34:30;9.85;;;5.65;;
41253;SDS011;26987;59.928;30.306;2024-01-27T03:36:57;10.75;;;5.47;;
41253;SDS011;26987;59.928;30.306;2024-01-27T03:39:25;11.77;;;5.57;;
41253;SDS011;26987;59.928;30.306;2024-01-27T03:41:53;11.30;;;5.43;;
41253;SDS011;26987;59.928;30.306;2024-01-27T03:44:21;13.10;;;5.60;;
41253;SDS011;26987;59.928;30.306;2024-01-27T03:46:49;12.43;;;5.90;;
41253;SDS011;26987;59.928;30.306;2024-01-27T03:49:17;10.90;;;6.03;;
41253;SDS011;26987;59.928;30.306;2024-01-27T03:51:46;10.43;;;6.18;;
41253;SDS011;26987;59.928;30.306;2024-01-27T03:54:14;9.70;;;6.30;;
41253;SDS011;26987;59.928;30.306;2024-01-27T03:56:42;13.85;;;7.85;;
41253;SDS011;26987;59.928;30.306;2024-01-27T03:59:10;12.40;;;7.80;;
41253;SDS011;26987;59.928;30.306;2024-01-27T04:01:38;12.27;;;7.55;;
41253;SDS011;26987;59.928;30.306;2024-01-27T04:04:06;15.30;;;8.40;;
41253;SDS011;26987;59.928;30.306;2024-01-27T04:06:37;16.15;;;9.18;;
41253;SDS011;26987;59.928;30.306;2024-01-27T04:09:06;19.33;;;10.10;;
41253;SDS011;26987;59.928;30.306;2024-01-27T04:11:36;16.95;;;10.00;;
41253;SDS011;26987;59.928;30.306;2024-01-27T04:14:04;19.92;;;11.57;;
41253;SDS011;26987;59.928;30.306;2024-01-27T04:16:33;18.80;;;11.98;;
41253;SDS011;26987;59.928;30.306;2024-01-27T04:19:01;15.10;;;9.73;;
41253;SDS011;26987;59.928;30.306;2024-01-27T04:21:29;17.65;;;10.38;;
41253;SDS011;26987;59.928;30.306;2024-01-27T04:23:57;20.25;;;12.00;;
41253;SDS011;26987;59.928;30.306;2024-01-27T04:26:26;16.45;;;9.85;;
41253;SDS011;26987;59.928;30.306;2024-01-27T04:28:54;16.17;;;9.27;;
41253;SDS011;26987;59.928;30.306;2024-01-27T04:31:22;14.85;;;9.07;;
41253;SDS011;26987;59.928;30.306;2024-01-27T04:33:50;16.90;;;9.70;;
41253;SDS011;26987;59.928;30.306;2024-01-27T04:36:24;18.48;;;10.40;;
41253;SDS011;26987;59.928;30.306;2024-01-27T04:38:53;19.80;;;11.00;;
41253;SDS011;26987;59.928;30.306;2024-01-27T04:41:21;19.17;;;11.57;;
41253;SDS011;26987;59.928;30.306;2024-01-27T04:43:51;21.83;;;12.32;;
41253;SDS011;26987;59.928;30.306;2024-01-27T04:46:21;23.02;;;12.40;;
41253;SDS011;26987;59.928;30.306;2024-01-27T04:48:49;22.83;;;13.25;;
41253;SDS011;26987;59.928;30.306;2024-01-27T04:51:17;27.30;;;13.40;;
41253;SDS011;26987;59.928;30.306;2024-01-27T04:53:45;19.98;;;12.55;;
41253;SDS011;26987;59.928;30.306;2024-01-27T04:56:13;20.45;;;12.20;;
41253;SDS011;26987;59.928;30.306;2024-01-27T04:58:41;19.05;;;11.25;;
41253;SDS011;26987;59.928;30.306;2024-01-27T05:01:10;22.65;;;13.35;;
41253;SDS011;26987;59.928;30.306;2024-01-27T05:03:38;24.67;;;12.70;;
41253;SDS011;26987;59.928;30.306;2024-01-27T05:06:07;23.35;;;13.27;;
41253;SDS011;26987;59.928;30.306;2024-01-27T05:08:35;23.52;;;13.80;;
41253;SDS011;26987;59.928;30.306;2024-01-27T05:11:04;22.80;;;12.77;;
41253;SDS011;26987;59.928;30.306;2024-01-27T05:13:33;23.40;;;13.65;;
41253;SDS011;26987;59.928;30.306;2024-01-27T05:16:01;21.00;;;12.60;;
41253;SDS011;26987;59.928;30.306;2024-01-27T05:18:30;23.40;;;13.00;;
41253;SDS011;26987;59.928;30.306;2024-01-27T05:20:58;18.98;;;11.35;;
41253;SDS011;26987;59.928;30.306;2024-01-27T05:23:26;19.17;;;11.02;;
41253;SDS011;26987;59.928;30.306;2024-01-27T05:25:54;18.92;;;10.52;;
41253;SDS011;26987;59.928;30.306;2024-01-27T05:28:22;22.73;;;13.25;;
41253;SDS011;26987;59.928;30.306;2024-01-27T05:30:50;24.65;;;14.32;;
41253;SDS011;26987;59.928;30.306;2024-01-27T05:33:18;21.33;;;13.38;;
41253;SDS011;26987;59.928;30.306;2024-01-27T05:35:48;19.60;;;12.52;;
41253;SDS011;26987;59.928;30.306;2024-01-27T05:38:16;14.43;;;9.10;;
41253;SDS011;26987;59.928;30.306;2024-01-27T05:40:43;14.77;;;8.57;;
41253;SDS011;26987;59.928;30.306;2024-01-27T05:43:12;12.30;;;7.35;;
41253;SDS011;26987;59.928;30.306;2024-01-27T05:45:40;10.98;;;7.10;;
41253;SDS011;26987;59.928;30.306;2024-01-27T05:48:08;12.38;;;7.38;;
41253;SDS011;26987;59.928;30.306;2024-01-27T05:50:36;13.85;;;7.65;;
41253;SDS011;26987;59.928;30.306;2024-01-27T05:53:05;12.95;;;7.45;;
41253;SDS011;26987;59.928;30.306;2024-01-27T05:55:33;12.85;;;8.05;;
41253;SDS011;26987;59.928;30.306;2024-01-27T05:58:01;14.10;;;8.43;;
41253;SDS011;26987;59.928;30.306;2024-01-27T06:00:29;12.73;;;7.95;;
41253;SDS011;26987;59.928;30.306;2024-01-27T06:02:57;15.00;;;8.07;;
41253;SDS011;26987;59.928;30.306;2024-01-27T06:05:25;16.77;;;8.32;;
41253;SDS011;26987;59.928;30.306;2024-01-27T06:07:52;16.95;;;8.95;;
41253;SDS011;26987;59.928;30.306;2024-01-27T06:10:22;13.52;;;8.18;;
41253;SDS011;26987;59.928;30.306;2024-01-27T06:12:50;14.73;;;7.88;;
41253;SDS011;26987;59.928;30.306;2024-01-27T06:15:18;16.58;;;8.50;;
41253;SDS011;26987;59.928;30.306;2024-01-27T06:17:47;13.70;;;8.13;;
41253;SDS011;26987;59.928;30.306;2024-01-27T06:20:15;16.55;;;8.45;;
41253;SDS011;26987;59.928;30.306;2024-01-27T06:22:44;14.00;;;8.45;;
41253;SDS011;26987;59.928;30.306;2024-01-27T06:25:12;13.98;;;8.23;;
41253;SDS011;26987;59.928;30.306;2024-01-27T06:27:41;17.13;;;8.77;;
41253;SDS011;26987;59.928;30.306;2024-01-27T06:30:09;16.90;;;9.25;;
41253;SDS011;26987;59.928;30.306;2024-01-27T06:32:38;18.40;;;9.02;;
41253;SDS011;26987;59.928;30.306;2024-01-27T06:35:06;16.13;;;8.50;;
41253;SDS011;26987;59.928;30.306;2024-01-27T06:37:34;17.80;;;9.20;;
41253;SDS011;26987;59.928;30.306;2024-01-27T06:40:03;15.75;;;8.77;;
41253;SDS011;26987;59.928;30.306;2024-01-27T06:42:32;17.45;;;8.98;;
41253;SDS011;26987;59.928;30.306;2024-01-27T06:45:01;18.33;;;8.93;;
41253;SDS011;26987;59.928;30.306;2024-01-27T06:47:29;21.35;;;9.68;;
41253;SDS011;26987;59.928;30.306;2024-01-27T06:49:57;16.75;;;9.85;;
41253;SDS011;26987;59.928;30.306;2024-01-27T06:52:25;20.55;;;8.85;;
41253;SDS011;26987;59.928;30.306;2024-01-27T06:54:53;16.20;;;9.77;;
41253;SDS011;26987;59.928;30.306;2024-01-27T06:57:21;19.02;;;9.02;;
41253;SDS011;26987;59.928;30.306;2024-01-27T06:59:51;15.25;;;8.98;;
41253;SDS011;26987;59.928;30.306;2024-01-27T07:02:23;18.55;;;9.20;;
41253;SDS011;26987;59.928;30.306;2024-01-27T07:04:52;14.25;;;8.52;;
41253;SDS011;26987;59.928;30.306;2024-01-27T07:07:26;18.33;;;9.32;;
41253;SDS011;26987;59.928;30.306;2024-01-27T07:09:55;16.83;;;9.77;;
41253;SDS011;26987;59.928;30.306;2024-01-27T07:12:23;21.70;;;9.07;;
41253;SDS011;26987;59.928;30.306;2024-01-27T07:14:52;24.08;;;10.30;;
41253;SDS011;26987;59.928;30.306;2024-01-27T07:17:20;20.45;;;11.02;;
41253;SDS011;26987;59.928;30.306;2024-01-27T07:19:50;23.80;;;11.38;;
41253;SDS011;26987;59.928;30.306;2024-01-27T07:22:18;17.20;;;9.70;;
41253;SDS011;26987;59.928;30.306;2024-01-27T07:24:46;18.05;;;9.25;;
41253;SDS011;26987;59.928;30.306;2024-01-27T07:27:16;16.95;;;9.02;;
41253;SDS011;26987;59.928;30.306;2024-01-27T07:29:44;20.23;;;10.55;;
41253;SDS011;26987;59.928;30.306;2024-01-27T07:32:12;16.73;;;9.48;;
41253;SDS011;26987;59.928;30.306;2024-01-27T07:34:42;16.48;;;9.52;;
41253;SDS011;26987;59.928;30.306;2024-01-27T07:37:11;18.33;;;10.23;;
41253;SDS011;26987;59.928;30.306;2024-01-27T07:39:39;18.15;;;9.70;;
41253;SDS011;26987;59.928;30.306;2024-01-27T07:42:07;18.67;;;9.82;;
41253;SDS011;26987;59.928;30.306;2024-01-27T07:44:36;18.60;;;10.35;;
41253;SDS011;26987;59.928;30.306;2024-01-27T07:47:04;21.60;;;9.25;;
41253;SDS011;26987;59.928;30.306;2024-01-27T07:49:31;18.92;;;9.60;;
41253;SDS011;26987;59.928;30.306;2024-01-27T07:52:01;19.70;;;8.80;;
41253;SDS011;26987;59.928;30.306;2024-01-27T07:54:29;21.23;;;9.48;;
41253;SDS011;26987;59.928;30.306;2024-01-27T07:56:57;18.08;;;9.63;;
41253;SDS011;26987;59.928;30.306;2024-01-27T07:59:26;17.73;;;10.93;;
41253;SDS011;26987;59.928;30.306;2024-01-27T08:01:54;20.85;;;10.77;;
41253;SDS011;26987;59.928;30.306;2024-01-27T08:04:22;20.58;;;9.85;;
41253;SDS011;26987;59.928;30.306;2024-01-27T08:06:50;20.00;;;9.32;;
41253;SDS011;26987;59.928;30.306;2024-01-27T08:09:20;20.42;;;8.52;;
41253;SDS011;26987;59.928;30.306;2024-01-27T08:11:48;15.55;;;8.73;;
41253;SDS011;26987;59.928;30.306;2024-01-27T08:14:18;18.73;;;8.43;;
41253;SDS011;26987;59.928;30.306;2024-01-27T08:16:47;23.55;;;10.70;;
41253;SDS011;26987;59.928;30.306;2024-01-27T08:19:15;18.00;;;8.23;;
41253;SDS011;26987;59.928;30.306;2024-01-27T08:21:46;16.67;;;9.38;;
41253;SDS011;26987;59.928;30.306;2024-01-27T08:24:14;16.85;;;8.68;;
41253;SDS011;26987;59.928;30.306;2024-01-27T08:26:43;13.90;;;8.25;;
41253;SDS011;26987;59.928;30.306;2024-01-27T08:29:12;15.80;;;8.48;;
41253;SDS011;26987;59.928;30.306;2024-01-27T08:31:40;14.40;;;7.70;;
41253;SDS011;26987;59.928;30.306;2024-01-27T08:34:08;15.13;;;7.70;;
41253;SDS011;26987;59.928;30.306;2024-01-27T08:36:38;17.65;;;7.75;;
41253;SDS011;26987;59.928;30.306;2024-01-27T08:39:06;14.00;;;7.18;;
41253;SDS011;26987;59.928;30.306;2024-01-27T08:41:35;13.73;;;6.95;;
41253;SDS011;26987;59.928;30.306;2024-01-27T08:44:04;13.80;;;6.93;;
41253;SDS011;26987;59.928;30.306;2024-01-27T08:46:32;12.80;;;6.57;;
41253;SDS011;26987;59.928;30.306;2024-01-27T08:49:00;11.27;;;6.93;;
41253;SDS011;26987;59.928;30.306;2024-01-27T08:51:28;15.35;;;7.28;;
41253;SDS011;26987;59.928;30.306;2024-01-27T08:53:56;12.25;;;7.18;;
41253;SDS011;26987;59.928;30.306;2024-01-27T08:56:23;15.50;;;7.07;;
41253;SDS011;26987;59.928;30.306;2024-01-27T08:58:51;13.90;;;8.02;;
41253;SDS011;26987;59.928;30.306;2024-01-27T09:01:21;14.60;;;7.85;;
41253;SDS011;26987;59.928;30.306;2024-01-27T09:03:49;13.00;;;7.30;;
41253;SDS011;26987;59.928;30.306;2024-01-27T09:06:17;12.45;;;7.45;;
41253;SDS011;26987;59.928;30.306;2024-01-27T09:08:45;13.88;;;7.97;;
41253;SDS011;26987;59.928;30.306;2024-01-27T09:11:12;14.23;;;8.70;;
41253;SDS011;26987;59.928;30.306;2024-01-27T09:13:40;14.95;;;8.50;;
41253;SDS011;26987;59.928;30.306;2024-01-27T09:16:10;15.93;;;7.95;;
41253;SDS011;26987;59.928;30.306;2024-01-27T09:18:42;13.98;;;9.00;;
41253;SDS011;26987;59.928;30.306;2024-01-27T09:21:10;17.13;;;8.80;;
41253;SDS011;26987;59.928;30.306;2024-01-27T09:23:38;13.50;;;8.25;;
41253;SDS011;26987;59.928;30.306;2024-01-27T09:26:06;15.88;;;8.85;;
41253;SDS011;26987;59.928;30.306;2024-01-27T09:28:33;13.43;;;7.80;;
41253;SDS011;26987;59.928;30.306;2024-01-27T09:31:03;23.02;;;10.38;;
41253;SDS011;26987;59.928;30.306;2024-01-27T09:33:31;19.77;;;7.97;;
41253;SDS011;26987;59.928;30.306;2024-01-27T09:36:03;17.00;;;9.23;;
41253;SDS011;26987;59.928;30.306;2024-01-27T09:38:32;15.88;;;8.18;;
41253;SDS011;26987;59.928;30.306;2024-01-27T09:41:00;15.85;;;8.90;;
41253;SDS011;26987;59.928;30.306;2024-01-27T09:43:28;15.48;;;8.20;;
41253;SDS011;26987;59.928;30.306;2024-01-27T09:45:58;16.08;;;8.10;;
41253;SDS011;26987;59.928;30.306;2024-01-27T09:48:29;15.48;;;7.80;;
41253;SDS011;26987;59.928;30.306;2024-01-27T09:50:58;13.77;;;7.90;;
41253;SDS011;26987;59.928;30.306;2024-01-27T09:53:28;15.38;;;7.50;;
41253;SDS011;26987;59.928;30.306;2024-01-27T09:55:56;15.32;;;7.30;;
41253;SDS011;26987;59.928;30.306;2024-01-27T09:58:26;12.65;;;7.30;;
41253;SDS011;26987;59.928;30.306;2024-01-27T10:00:56;17.00;;;8.25;;
41253;SDS011;26987;59.928;30.306;2024-01-27T10:03:25;17.55;;;8.45;;
41253;SDS011;26987;59.928;30.306;2024-01-27T10:05:55;18.20;;;8.43;;
41253;SDS011;26987;59.928;30.306;2024-01-27T10:08:24;15.90;;;9.48;;
41253;SDS011;26987;59.928;30.306;2024-01-27T10:10:54;15.10;;;9.07;;
41253;SDS011;26987;59.928;30.306;2024-01-27T10:13:23;15.18;;;7.68;;
41253;SDS011;26987;59.928;30.306;2024-01-27T10:15:59;13.15;;;7.30;;
41253;SDS011;26987;59.928;30.306;2024-01-27T10:18:28;13.63;;;8.05;;
41253;SDS011;26987;59.928;30.306;2024-01-27T10:20:57;11.27;;;6.32;;
41253;SDS011;26987;59.928;30.306;2024-01-27T10:23:25;15.23;;;7.65;;
41253;SDS011;26987;59.928;30.306;2024-01-27T10:25:55;17.90;;;7.35;;
41253;SDS011;26987;59.928;30.306;2024-01-27T10:28:22;15.25;;;7.63;;
41253;SDS011;26987;59.928;30.306;2024-01-27T10:30:50;15.38;;;8.13;;
41253;SDS011;26987;59.928;30.306;2024-01-27T10:33:18;15.13;;;7.63;;
41253;SDS011;26987;59.928;30.306;2024-01-27T10:35:47;11.45;;;7.13;;
41253;SDS011;26987;59.928;30.306;2024-01-27T10:38:33;12.98;;;6.82;;
41253;SDS011;26987;59.928;30.306;2024-01-27T10:41:03;13.25;;;7.68;;
41253;SDS011;26987;59.928;30.306;2024-01-27T10:43:36;15.13;;;7.43;;
41253;SDS011;26987;59.928;30.306;2024-01-27T10:46:06;11.63;;;7.13;;
41253;SDS011;26987;59.928;30.306;2024-01-27T10:48:35;13.02;;;7.38;;
41253;SDS011;26987;59.928;30.306;2024-01-27T10:51:05;13.13;;;7.70;;
41253;SDS011;26987;59.928;30.306;2024-01-27T10:53:36;15.27;;;7.40;;
41253;SDS011;26987;59.928;30.306;2024-01-27T10:56:07;17.33;;;8.32;;
41253;SDS011;26987;59.928;30.306;2024-01-27T10:58:37;14.30;;;8.00;;
41253;SDS011;26987;59.928;30.306;2024-01-27T11:01:08;14.65;;;7.22;;
41253;SDS011;26987;59.928;30.306;2024-01-27T11:03:37;16.45;;;8.27;;
41253;SDS011;26987;59.928;30.306;2024-01-27T11:06:06;14.70;;;7.57;;
41253;SDS011;26987;59.928;30.306;2024-01-27T11:08:35;15.20;;;8.13;;
41253;SDS011;26987;59.928;30.306;2024-01-27T11:11:05;15.52;;;8.38;;
41253;SDS011;26987;59.928;30.306;2024-01-27T11:13:35;15.70;;;7.45;;
41253;SDS011;26987;59.928;30.306;2024-01-27T11:16:05;13.75;;;7.68;;
41253;SDS011;26987;59.928;30.306;2024-01-27T11:18:42;11.45;;;6.90;;
41253;SDS011;26987;59.928;30.306;2024-01-27T11:21:12;11.57;;;6.55;;
41253;SDS011;26987;59.928;30.306;2024-01-27T11:23:42;10.27;;;6.88;;
41253;SDS011;26987;59.928;30.306;2024-01-27T11:26:19;13.85;;;7.10;;
41253;SDS011;26987;59.928;30.306;2024-01-27T11:28:48;11.95;;;7.22;;
41253;SDS011;26987;59.928;30.306;2024-01-27T11:31:17;12.32;;;6.93;;
41253;SDS011;26987;59.928;30.306;2024-01-27T11:33:46;12.77;;;7.45;;
41253;SDS011;26987;59.928;30.306;2024-01-27T11:36:18;13.50;;;8.23;;
41253;SDS011;26987;59.928;30.306;2024-01-27T11:38:48;14.38;;;7.10;;
41253;SDS011;26987;59.928;30.306;2024-01-27T11:41:27;14.90;;;7.10;;
41253;SDS011;26987;59.928;30.306;2024-01-27T11:43:56;10.63;;;6.88;;
41253;SDS011;26987;59.928;30.306;2024-01-27T11:46:27;13.48;;;7.38;;
41253;SDS011;26987;59.928;30.306;2024-01-27T11:48:55;13.75;;;6.85;;
41253;SDS011;26987;59.928;30.306;2024-01-27T11:51:24;16.75;;;6.82;;
41253;SDS011;26987;59.928;30.306;2024-01-27T11:53:52;11.70;;;6.18;;
41253;SDS011;26987;59.928;30.306;2024-01-27T11:56:20;11.70;;;6.55;;
41253;SDS011;26987;59.928;30.306;2024-01-27T11:58:50;15.30;;;7.55;;
41253;SDS011;26987;59.928;30.306;2024-01-27T12:01:17;16.15;;;7.93;;
41253;SDS011;26987;59.928;30.306;2024-01-27T12:03:45;14.50;;;7.30;;
41253;SDS011;26987;59.928;30.306;2024-01-27T12:06:14;11.93;;;7.35;;
41253;SDS011;26987;59.928;30.306;2024-01-27T12:08:42;12.98;;;6.90;;
41253;SDS011;26987;59.928;30.306;2024-01-27T12:11:13;16.73;;;6.32;;
41253;SDS011;26987;59.928;30.306;2024-01-27T12:13:41;10.85;;;5.88;;
41253;SDS011;26987;59.928;30.306;2024-01-27T12:16:10;9.75;;;5.22;;
41253;SDS011;26987;59.928;30.306;2024-01-27T12:18:39;10.50;;;5.40;;
41253;SDS011;26987;59.928;30.306;2024-01-27T12:21:07;10.20;;;5.43;;
41253;SDS011;26987;59.928;30.306;2024-01-27T12:23:35;12.38;;;5.00;;
41253;SDS011;26987;59.928;30.306;2024-01-27T12:26:03;9.55;;;5.28;;
41253;SDS011;26987;59.928;30.306;2024-01-27T12:28:31;9.77;;;5.65;;
41253;SDS011;26987;59.928;30.306;2024-01-27T12:31:03;15.70;;;5.88;;
41253;SDS011;26987;59.928;30.306;2024-01-27T12:33:33;10.40;;;5.55;;
41253;SDS011;26987;59.928;30.306;2024-01-27T12:36:01;10.32;;;5.25;;
41253;SDS011;26987;59.928;30.306;2024-01-27T12:38:29;11.70;;;5.40;;
41253;SDS011;26987;59.928;30.306;2024-01-27T12:40:57;8.10;;;5.13;;
41253;SDS011;26987;59.928;30.306;2024-01-27T12:43:25;13.90;;;5.53;;
41253;SDS011;26987;59.928;30.306;2024-01-27T12:45:52;11.25;;;5.88;;
41253;SDS011;26987;59.928;30.306;2024-01-27T12:48:20;14.40;;;6.20;;
41253;SDS011;26987;59.928;30.306;2024-01-27T12:50:50;10.73;;;5.75;;
41253;SDS011;26987;59.928;30.306;2024-01-27T12:53:18;10.68;;;5.82;;
41253;SDS011;26987;59.928;30.306;2024-01-27T12:55:46;8.20;;;5.18;;
41253;SDS011;26987;59.928;30.306;2024-01-27T12:58:14;11.52;;;5.07;;
41253;SDS011;26987;59.928;30.306;2024-01-27T13:00:42;8.13;;;5.30;;
41253;SDS011;26987;59.928;30.306;2024-01-27T13:03:10;9.80;;;5.72;;
41253;SDS011;26987;59.928;30.306;2024-01-27T13:05:38;12.90;;;6.20;;
41253;SDS011;26987;59.928;30.306;2024-01-27T13:08:07;12.10;;;5.95;;
41253;SDS011;26987;59.928;30.306;2024-01-27T13:10:36;12.63;;;6.47;;
41253;SDS011;26987;59.928;30.306;2024-01-27T13:13:04;9.48;;;5.57;;
41253;SDS011;26987;59.928;30.306;2024-01-27T13:15:32;13.50;;;6.80;;
41253;SDS011;26987;59.928;30.306;2024-01-27T13:17:59;16.05;;;7.30;;
41253;SDS011;26987;59.928;30.306;2024-01-27T13:20:27;11.63;;;6.15;;
41253;SDS011;26987;59.928;30.306;2024-01-27T13:22:55;28.38;;;8.65;;
41253;SDS011;26987;59.928;30.306;2024-01-27T13:25:25;9.48;;;5.60;;
41253;SDS011;26987;59.928;30.306;2024-01-27T13:27:53;13.32;;;6.60;;
41253;SDS011;26987;59.928;30.306;2024-01-27T13:30:22;9.57;;;5.82;;
41253;SDS011;26987;59.928;30.306;2024-01-27T13:32:50;10.70;;;6.47;;
41253;SDS011;26987;59.928;30.306;2024-01-27T13:35:18;11.10;;;6.05;;
41253;SDS011;26987;59.928;30.306;2024-01-27T13:37:45;11.13;;;6.28;;
41253;SDS011;26987;59.928;30.306;2024-01-27T13:40:14;14.65;;;6.55;;
41253;SDS011;26987;59.928;30.306;2024-01-27T13:42:43;20.27;;;6.50;;
41253;SDS011;26987;59.928;30.306;2024-01-27T13:45:11;9.13;;;6.03;;
41253;SDS011;26987;59.928;30.306;2024-01-27T13:47:39;11.43;;;6.40;;
41253;SDS011;26987;59.928;30.306;2024-01-27T13:50:08;13.27;;;5.95;;
41253;SDS011;26987;59.928;30.306;2024-01-27T13:52:37;10.07;;;5.85;;
41253;SDS011;26987;59.928;30.306;2024-01-27T13:55:05;9.32;;;5.25;;
41253;SDS011;26987;59.928;30.306;2024-01-27T13:57:33;7.18;;;4.53;;
41253;SDS011;26987;59.928;30.306;2024-01-27T14:00:03;12.63;;;5.50;;
41253;SDS011;26987;59.928;30.306;2024-01-27T14:02:33;8.15;;;5.38;;
41253;SDS011;26987;59.928;30.306;2024-01-27T14:05:01;7.97;;;4.47;;
41253;SDS011;26987;59.928;30.306;2024-01-27T14:07:29;5.72;;;3.38;;
41253;SDS011;26987;59.928;30.306;2024-01-27T14:09:57;6.43;;;3.95;;
41253;SDS011;26987;59.928;30.306;2024-01-27T14:12:25;9.02;;;4.22;;
41253;SDS011;26987;59.928;30.306;2024-01-27T14:15:01;7.78;;;3.55;;
41253;SDS011;26987;59.928;30.306;2024-01-27T14:17:33;7.43;;;3.85;;
41253;SDS011;26987;59.928;30.306;2024-01-27T14:20:02;6.60;;;3.35;;
41253;SDS011;26987;59.928;30.306;2024-01-27T14:22:30;5.50;;;3.38;;
41253;SDS011;26987;59.928;30.306;2024-01-27T14:24:59;7.80;;;3.60;;
41253;SDS011;26987;59.928;30.306;2024-01-27T14:27:26;7.38;;;3.50;;
41253;SDS011;26987;59.928;30.306;2024-01-27T14:29:55;6.68;;;3.60;;
41253;SDS011;26987;59.928;30.306;2024-01-27T14:32:25;7.75;;;3.42;;